sensor_id;sensor_type;location;lat;lon;timestamp;P1;durP1;ratioP1;P2;durP2;ratioP2
49488;SDS011;35382;51.484;11.476;2022-12-01T00:01:21;120.03;;;46.80;;
49488;SDS011;35382;51.484;11.476;2022-12-01T00:03:02;126.53;;;44.72;;
49488;SDS011;35382;51.484;11.476;2022-12-01T00:04:43;128.07;;;48.85;;
49488;SDS011;35382;51.484;11.476;2022-12-01T00:06:24;130.20;;;46.95;;
49488;SDS011;35382;51.484;11.476;2022-12-01T00:08:05;134.35;;;48.08;;
49488;SDS011;35382;51.484;11.476;2022-12-01T00:09:47;134.27;;;47.65;;
49488;SDS011;35382;51.484;11.476;2022-12-01T00:11:47;121.95;;;46.55;;
49488;SDS011;35382;51.484;11.476;2022-12-01T00:13:28;143.55;;;48.55;;
49488;SDS011;35382;51.484;11.476;2022-12-01T00:15:09;133.63;;;48.00;;
49488;SDS011;35382;51.484;11.476;2022-12-01T00:16:50;131.25;;;49.47;;
49488;SDS011;35382;51.484;11.476;2022-12-01T00:18:31;136.27;;;46.60;;
49488;SDS011;35382;51.484;11.476;2022-12-01T00:20:13;132.85;;;46.60;;
49488;SDS011;35382;51.484;11.476;2022-12-01T00:21:55;117.75;;;44.47;;
49488;SDS011;35382;51.484;11.476;2022-12-01T00:23:51;127.35;;;45.92;;
49488;SDS011;35382;51.484;11.476;2022-12-01T00:25:34;136.82;;;46.63;;
49488;SDS011;35382;51.484;11.476;2022-12-01T00:27:14;131.07;;;47.33;;
49488;SDS011;35382;51.484;11.476;2022-12-01T00:28:56;120.13;;;47.30;;
49488;SDS011;35382;51.484;11.476;2022-12-01T00:30:38;126.13;;;46.63;;
49488;SDS011;35382;51.484;11.476;2022-12-01T00:32:19;123.85;;;44.40;;
49488;SDS011;35382;51.484;11.476;2022-12-01T00:34:00;123.72;;;45.90;;
49488;SDS011;35382;51.484;11.476;2022-12-01T00:35:41;113.90;;;42.45;;
49488;SDS011;35382;51.484;11.476;2022-12-01T00:37:22;113.72;;;45.28;;
49488;SDS011;35382;51.484;11.476;2022-12-01T00:39:03;123.40;;;43.47;;
49488;SDS011;35382;51.484;11.476;2022-12-01T00:40:44;128.00;;;44.85;;
49488;SDS011;35382;51.484;11.476;2022-12-01T00:42:25;122.50;;;44.42;;
49488;SDS011;35382;51.484;11.476;2022-12-01T00:44:06;116.47;;;43.97;;
49488;SDS011;35382;51.484;11.476;2022-12-01T00:45:47;127.18;;;46.22;;
49488;SDS011;35382;51.484;11.476;2022-12-01T00:47:28;123.38;;;45.25;;
49488;SDS011;35382;51.484;11.476;2022-12-01T00:49:11;128.80;;;45.30;;
49488;SDS011;35382;51.484;11.476;2022-12-01T00:50:53;128.57;;;45.28;;
49488;SDS011;35382;51.484;11.476;2022-12-01T00:52:36;132.00;;;48.70;;
49488;SDS011;35382;51.484;11.476;2022-12-01T00:54:17;129.30;;;45.05;;
49488;SDS011;35382;51.484;11.476;2022-12-01T00:55:58;122.97;;;43.90;;
49488;SDS011;35382;51.484;11.476;2022-12-01T00:57:39;134.63;;;48.75;;
49488;SDS011;35382;51.484;11.476;2022-12-01T00:59:20;138.50;;;46.70;;
49488;SDS011;35382;51.484;11.476;2022-12-01T01:01:01;139.07;;;48.50;;
49488;SDS011;35382;51.484;11.476;2022-12-01T01:02:43;150.88;;;47.10;;
49488;SDS011;35382;51.484;11.476;2022-12-01T01:04:24;143.05;;;47.83;;
49488;SDS011;35382;51.484;11.476;2022-12-01T01:06:08;154.45;;;48.80;;
49488;SDS011;35382;51.484;11.476;2022-12-01T01:07:50;156.77;;;49.15;;
49488;SDS011;35382;51.484;11.476;2022-12-01T01:09:31;156.20;;;50.08;;
49488;SDS011;35382;51.484;11.476;2022-12-01T01:11:13;155.43;;;50.67;;
49488;SDS011;35382;51.484;11.476;2022-12-01T01:12:53;148.95;;;50.58;;
49488;SDS011;35382;51.484;11.476;2022-12-01T01:14:34;150.57;;;48.50;;
49488;SDS011;35382;51.484;11.476;2022-12-01T01:16:16;148.20;;;49.35;;
49488;SDS011;35382;51.484;11.476;2022-12-01T01:18:01;148.73;;;48.88;;
49488;SDS011;35382;51.484;11.476;2022-12-01T01:19:42;148.20;;;50.08;;
49488;SDS011;35382;51.484;11.476;2022-12-01T01:21:23;141.25;;;46.85;;
49488;SDS011;35382;51.484;11.476;2022-12-01T01:23:05;152.77;;;50.05;;
49488;SDS011;35382;51.484;11.476;2022-12-01T01:24:46;152.00;;;50.58;;
49488;SDS011;35382;51.484;11.476;2022-12-01T01:26:28;155.75;;;48.22;;
49488;SDS011;35382;51.484;11.476;2022-12-01T01:28:10;166.50;;;50.20;;
49488;SDS011;35382;51.484;11.476;2022-12-01T01:29:51;174.77;;;51.08;;
49488;SDS011;35382;51.484;11.476;2022-12-01T01:31:32;157.60;;;49.47;;
49488;SDS011;35382;51.484;11.476;2022-12-01T01:33:14;160.48;;;50.45;;
49488;SDS011;35382;51.484;11.476;2022-12-01T01:34:55;154.98;;;49.50;;
49488;SDS011;35382;51.484;11.476;2022-12-01T01:36:36;154.80;;;49.78;;
49488;SDS011;35382;51.484;11.476;2022-12-01T01:38:17;157.45;;;51.90;;
49488;SDS011;35382;51.484;11.476;2022-12-01T01:39:57;157.32;;;51.15;;
49488;SDS011;35382;51.484;11.476;2022-12-01T01:41:38;162.20;;;53.45;;
49488;SDS011;35382;51.484;11.476;2022-12-01T01:43:37;153.98;;;49.72;;
49488;SDS011;35382;51.484;11.476;2022-12-01T01:45:25;167.70;;;51.72;;
49488;SDS011;35382;51.484;11.476;2022-12-01T01:47:09;137.43;;;45.45;;
49488;SDS011;35382;51.484;11.476;2022-12-01T01:48:54;144.32;;;47.53;;
49488;SDS011;35382;51.484;11.476;2022-12-01T01:50:39;149.38;;;50.15;;
49488;SDS011;35382;51.484;11.476;2022-12-01T01:52:22;147.25;;;48.20;;
49488;SDS011;35382;51.484;11.476;2022-12-01T01:54:05;148.98;;;48.53;;
49488;SDS011;35382;51.484;11.476;2022-12-01T01:55:55;151.30;;;51.15;;
49488;SDS011;35382;51.484;11.476;2022-12-01T01:57:36;162.20;;;51.30;;
49488;SDS011;35382;51.484;11.476;2022-12-01T01:59:21;170.15;;;52.25;;
49488;SDS011;35382;51.484;11.476;2022-12-01T02:01:06;168.98;;;51.63;;
49488;SDS011;35382;51.484;11.476;2022-12-01T02:02:47;182.95;;;53.63;;
49488;SDS011;35382;51.484;11.476;2022-12-01T02:04:29;181.35;;;53.03;;
49488;SDS011;35382;51.484;11.476;2022-12-01T02:06:11;153.50;;;49.50;;
49488;SDS011;35382;51.484;11.476;2022-12-01T02:07:54;163.10;;;53.28;;
49488;SDS011;35382;51.484;11.476;2022-12-01T02:09:36;142.65;;;49.33;;
49488;SDS011;35382;51.484;11.476;2022-12-01T02:11:38;151.90;;;48.03;;
49488;SDS011;35382;51.484;11.476;2022-12-01T02:13:32;147.90;;;48.72;;
49488;SDS011;35382;51.484;11.476;2022-12-01T02:15:36;154.63;;;48.85;;
49488;SDS011;35382;51.484;11.476;2022-12-01T02:33:10;156.25;;;48.55;;
49488;SDS011;35382;51.484;11.476;2022-12-01T02:42:56;146.18;;;49.33;;
49488;SDS011;35382;51.484;11.476;2022-12-01T02:44:51;152.43;;;48.00;;
49488;SDS011;35382;51.484;11.476;2022-12-01T02:46:38;143.18;;;47.58;;
49488;SDS011;35382;51.484;11.476;2022-12-01T02:48:34;157.80;;;50.75;;
49488;SDS011;35382;51.484;11.476;2022-12-01T02:50:17;168.85;;;50.83;;
49488;SDS011;35382;51.484;11.476;2022-12-01T02:52:01;165.18;;;51.83;;
49488;SDS011;35382;51.484;11.476;2022-12-01T02:53:45;182.45;;;51.90;;
49488;SDS011;35382;51.484;11.476;2022-12-01T02:55:26;180.15;;;52.83;;
49488;SDS011;35382;51.484;11.476;2022-12-01T02:57:10;162.70;;;50.78;;
49488;SDS011;35382;51.484;11.476;2022-12-01T02:58:52;164.63;;;51.17;;
49488;SDS011;35382;51.484;11.476;2022-12-01T03:00:33;169.25;;;51.08;;
49488;SDS011;35382;51.484;11.476;2022-12-01T03:06:13;160.70;;;50.00;;
49488;SDS011;35382;51.484;11.476;2022-12-01T03:14:39;142.25;;;49.45;;
49488;SDS011;35382;51.484;11.476;2022-12-01T03:16:32;142.65;;;47.15;;
49488;SDS011;35382;51.484;11.476;2022-12-01T03:22:22;150.77;;;47.22;;
49488;SDS011;35382;51.484;11.476;2022-12-01T03:24:09;152.70;;;48.00;;
49488;SDS011;35382;51.484;11.476;2022-12-01T03:25:54;138.73;;;46.92;;
49488;SDS011;35382;51.484;11.476;2022-12-01T03:27:39;150.85;;;48.00;;
49488;SDS011;35382;51.484;11.476;2022-12-01T03:29:26;148.32;;;48.67;;
49488;SDS011;35382;51.484;11.476;2022-12-01T03:31:13;158.48;;;50.10;;
49488;SDS011;35382;51.484;11.476;2022-12-01T03:32:59;149.52;;;47.45;;
49488;SDS011;35382;51.484;11.476;2022-12-01T03:36:39;158.93;;;50.20;;
49488;SDS011;35382;51.484;11.476;2022-12-01T03:38:25;150.02;;;46.47;;
49488;SDS011;35382;51.484;11.476;2022-12-01T03:40:09;159.43;;;49.55;;
49488;SDS011;35382;51.484;11.476;2022-12-01T03:42:06;154.80;;;47.35;;
49488;SDS011;35382;51.484;11.476;2022-12-01T03:43:57;154.55;;;49.50;;
49488;SDS011;35382;51.484;11.476;2022-12-01T03:47:42;155.63;;;49.90;;
49488;SDS011;35382;51.484;11.476;2022-12-01T03:49:23;161.57;;;51.38;;
49488;SDS011;35382;51.484;11.476;2022-12-01T03:53:23;158.55;;;50.97;;
49488;SDS011;35382;51.484;11.476;2022-12-01T03:55:12;153.60;;;49.72;;
49488;SDS011;35382;51.484;11.476;2022-12-01T03:57:02;158.10;;;49.20;;
49488;SDS011;35382;51.484;11.476;2022-12-01T03:58:46;174.90;;;51.15;;
49488;SDS011;35382;51.484;11.476;2022-12-01T04:00:30;180.45;;;53.42;;
49488;SDS011;35382;51.484;11.476;2022-12-01T04:02:11;169.55;;;50.90;;
49488;SDS011;35382;51.484;11.476;2022-12-01T04:03:52;178.02;;;50.78;;
49488;SDS011;35382;51.484;11.476;2022-12-01T04:05:33;180.85;;;53.60;;
49488;SDS011;35382;51.484;11.476;2022-12-01T04:07:15;173.32;;;54.15;;
49488;SDS011;35382;51.484;11.476;2022-12-01T04:08:55;172.02;;;51.40;;
49488;SDS011;35382;51.484;11.476;2022-12-01T04:10:36;210.27;;;54.58;;
49488;SDS011;35382;51.484;11.476;2022-12-01T04:12:17;231.10;;;57.17;;
49488;SDS011;35382;51.484;11.476;2022-12-01T04:14:12;197.77;;;55.00;;
49488;SDS011;35382;51.484;11.476;2022-12-01T04:15:53;246.75;;;57.03;;
49488;SDS011;35382;51.484;11.476;2022-12-01T04:17:34;234.20;;;57.67;;
49488;SDS011;35382;51.484;11.476;2022-12-01T04:19:16;209.23;;;53.78;;
49488;SDS011;35382;51.484;11.476;2022-12-01T04:20:57;229.32;;;55.90;;
49488;SDS011;35382;51.484;11.476;2022-12-01T04:22:38;206.30;;;54.50;;
49488;SDS011;35382;51.484;11.476;2022-12-01T04:24:19;204.40;;;54.28;;
49488;SDS011;35382;51.484;11.476;2022-12-01T04:26:00;208.32;;;53.65;;
49488;SDS011;35382;51.484;11.476;2022-12-01T04:27:42;281.05;;;55.20;;
49488;SDS011;35382;51.484;11.476;2022-12-01T04:29:23;218.80;;;53.83;;
49488;SDS011;35382;51.484;11.476;2022-12-01T04:31:04;242.77;;;55.58;;
49488;SDS011;35382;51.484;11.476;2022-12-01T04:32:45;195.20;;;52.78;;
49488;SDS011;35382;51.484;11.476;2022-12-01T04:34:26;172.90;;;51.47;;
49488;SDS011;35382;51.484;11.476;2022-12-01T04:36:07;209.20;;;52.30;;
49488;SDS011;35382;51.484;11.476;2022-12-01T04:37:48;190.55;;;51.97;;
49488;SDS011;35382;51.484;11.476;2022-12-01T04:39:29;221.77;;;56.50;;
49488;SDS011;35382;51.484;11.476;2022-12-01T04:41:10;198.45;;;52.33;;
49488;SDS011;35382;51.484;11.476;2022-12-01T04:42:52;224.93;;;54.92;;
49488;SDS011;35382;51.484;11.476;2022-12-01T04:44:33;240.82;;;60.83;;
49488;SDS011;35382;51.484;11.476;2022-12-01T04:46:14;198.07;;;52.65;;
49488;SDS011;35382;51.484;11.476;2022-12-01T04:47:55;197.15;;;52.40;;
49488;SDS011;35382;51.484;11.476;2022-12-01T04:49:36;224.45;;;54.67;;
49488;SDS011;35382;51.484;11.476;2022-12-01T04:51:17;180.90;;;52.03;;
49488;SDS011;35382;51.484;11.476;2022-12-01T04:52:58;185.90;;;52.85;;
49488;SDS011;35382;51.484;11.476;2022-12-01T04:54:39;202.50;;;54.40;;
49488;SDS011;35382;51.484;11.476;2022-12-01T04:56:20;178.70;;;50.90;;
49488;SDS011;35382;51.484;11.476;2022-12-01T04:58:00;183.32;;;49.75;;
49488;SDS011;35382;51.484;11.476;2022-12-01T04:59:44;227.25;;;53.97;;
49488;SDS011;35382;51.484;11.476;2022-12-01T05:01:25;256.13;;;56.15;;
49488;SDS011;35382;51.484;11.476;2022-12-01T05:03:06;261.08;;;55.90;;
49488;SDS011;35382;51.484;11.476;2022-12-01T05:04:47;222.25;;;53.75;;
49488;SDS011;35382;51.484;11.476;2022-12-01T05:06:28;288.17;;;59.35;;
49488;SDS011;35382;51.484;11.476;2022-12-01T05:08:09;228.02;;;53.55;;
49488;SDS011;35382;51.484;11.476;2022-12-01T05:09:51;225.60;;;53.08;;
49488;SDS011;35382;51.484;11.476;2022-12-01T05:11:32;207.93;;;51.72;;
49488;SDS011;35382;51.484;11.476;2022-12-01T05:13:12;191.45;;;53.15;;
49488;SDS011;35382;51.484;11.476;2022-12-01T05:14:53;196.77;;;50.50;;
49488;SDS011;35382;51.484;11.476;2022-12-01T05:16:34;201.82;;;51.35;;
49488;SDS011;35382;51.484;11.476;2022-12-01T05:18:15;237.82;;;53.90;;
49488;SDS011;35382;51.484;11.476;2022-12-01T05:19:56;199.75;;;53.95;;
49488;SDS011;35382;51.484;11.476;2022-12-01T05:21:56;235.88;;;53.10;;
49488;SDS011;35382;51.484;11.476;2022-12-01T05:23:37;228.95;;;53.95;;
49488;SDS011;35382;51.484;11.476;2022-12-01T05:25:18;208.45;;;49.65;;
49488;SDS011;35382;51.484;11.476;2022-12-01T05:26:59;227.07;;;50.97;;
49488;SDS011;35382;51.484;11.476;2022-12-01T05:28:40;219.32;;;51.58;;
49488;SDS011;35382;51.484;11.476;2022-12-01T05:30:21;177.25;;;48.67;;
49488;SDS011;35382;51.484;11.476;2022-12-01T05:32:02;239.55;;;52.03;;
49488;SDS011;35382;51.484;11.476;2022-12-01T05:33:44;254.02;;;52.25;;
49488;SDS011;35382;51.484;11.476;2022-12-01T05:35:25;281.75;;;55.63;;
49488;SDS011;35382;51.484;11.476;2022-12-01T05:37:06;197.88;;;49.50;;
49488;SDS011;35382;51.484;11.476;2022-12-01T05:38:47;252.75;;;53.55;;
49488;SDS011;35382;51.484;11.476;2022-12-01T05:40:28;236.20;;;52.90;;
49488;SDS011;35382;51.484;11.476;2022-12-01T05:42:10;246.35;;;54.63;;
49488;SDS011;35382;51.484;11.476;2022-12-01T05:43:51;241.52;;;51.88;;
49488;SDS011;35382;51.484;11.476;2022-12-01T05:45:32;230.02;;;53.13;;
49488;SDS011;35382;51.484;11.476;2022-12-01T05:47:14;192.98;;;50.40;;
49488;SDS011;35382;51.484;11.476;2022-12-01T05:48:55;212.57;;;50.25;;
49488;SDS011;35382;51.484;11.476;2022-12-01T05:50:37;198.15;;;48.58;;
49488;SDS011;35382;51.484;11.476;2022-12-01T05:52:20;237.48;;;53.42;;
49488;SDS011;35382;51.484;11.476;2022-12-01T05:54:01;239.32;;;50.47;;
49488;SDS011;35382;51.484;11.476;2022-12-01T05:55:42;230.65;;;49.38;;
49488;SDS011;35382;51.484;11.476;2022-12-01T05:57:23;240.77;;;50.50;;
49488;SDS011;35382;51.484;11.476;2022-12-01T05:59:04;218.85;;;48.10;;
49488;SDS011;35382;51.484;11.476;2022-12-01T06:00:45;165.52;;;45.50;;
49488;SDS011;35382;51.484;11.476;2022-12-01T06:02:26;204.02;;;48.30;;
49488;SDS011;35382;51.484;11.476;2022-12-01T06:04:07;219.60;;;46.25;;
49488;SDS011;35382;51.484;11.476;2022-12-01T06:05:48;259.33;;;51.20;;
49488;SDS011;35382;51.484;11.476;2022-12-01T06:07:43;214.80;;;45.97;;
49488;SDS011;35382;51.484;11.476;2022-12-01T06:09:24;231.05;;;48.10;;
49488;SDS011;35382;51.484;11.476;2022-12-01T06:11:05;200.88;;;48.13;;
49488;SDS011;35382;51.484;11.476;2022-12-01T06:12:46;189.68;;;45.72;;
49488;SDS011;35382;51.484;11.476;2022-12-01T06:14:27;215.20;;;49.60;;
49488;SDS011;35382;51.484;11.476;2022-12-01T06:16:08;249.48;;;49.75;;
49488;SDS011;35382;51.484;11.476;2022-12-01T06:17:49;214.25;;;50.05;;
49488;SDS011;35382;51.484;11.476;2022-12-01T06:19:30;273.38;;;54.58;;
49488;SDS011;35382;51.484;11.476;2022-12-01T06:21:11;216.27;;;50.80;;
49488;SDS011;35382;51.484;11.476;2022-12-01T06:22:52;274.70;;;53.83;;
49488;SDS011;35382;51.484;11.476;2022-12-01T06:24:33;251.65;;;49.55;;
49488;SDS011;35382;51.484;11.476;2022-12-01T06:26:14;203.25;;;47.20;;
49488;SDS011;35382;51.484;11.476;2022-12-01T06:27:55;214.80;;;48.45;;
49488;SDS011;35382;51.484;11.476;2022-12-01T06:29:37;328.02;;;52.45;;
49488;SDS011;35382;51.484;11.476;2022-12-01T06:31:18;252.52;;;50.40;;
49488;SDS011;35382;51.484;11.476;2022-12-01T06:32:59;227.60;;;47.63;;
49488;SDS011;35382;51.484;11.476;2022-12-01T06:34:40;274.33;;;51.15;;
49488;SDS011;35382;51.484;11.476;2022-12-01T06:36:21;226.23;;;47.17;;
49488;SDS011;35382;51.484;11.476;2022-12-01T06:38:02;250.93;;;48.22;;
49488;SDS011;35382;51.484;11.476;2022-12-01T06:39:43;270.33;;;50.72;;
49488;SDS011;35382;51.484;11.476;2022-12-01T06:41:24;226.23;;;49.08;;
49488;SDS011;35382;51.484;11.476;2022-12-01T06:43:05;248.52;;;48.53;;
49488;SDS011;35382;51.484;11.476;2022-12-01T06:44:46;236.88;;;48.53;;
49488;SDS011;35382;51.484;11.476;2022-12-01T06:46:27;238.30;;;48.35;;
49488;SDS011;35382;51.484;11.476;2022-12-01T06:48:08;252.77;;;49.20;;
49488;SDS011;35382;51.484;11.476;2022-12-01T06:49:49;282.13;;;51.50;;
49488;SDS011;35382;51.484;11.476;2022-12-01T06:51:30;301.67;;;49.72;;
49488;SDS011;35382;51.484;11.476;2022-12-01T06:53:13;304.30;;;53.28;;
49488;SDS011;35382;51.484;11.476;2022-12-01T06:54:54;215.60;;;46.53;;
49488;SDS011;35382;51.484;11.476;2022-12-01T06:56:35;225.07;;;44.90;;
49488;SDS011;35382;51.484;11.476;2022-12-01T06:58:16;236.23;;;46.95;;
49488;SDS011;35382;51.484;11.476;2022-12-01T06:59:58;275.42;;;48.28;;
49488;SDS011;35382;51.484;11.476;2022-12-01T07:01:39;388.65;;;55.85;;
49488;SDS011;35382;51.484;11.476;2022-12-01T07:03:20;281.65;;;48.88;;
49488;SDS011;35382;51.484;11.476;2022-12-01T07:05:00;375.92;;;56.53;;
49488;SDS011;35382;51.484;11.476;2022-12-01T07:06:41;290.67;;;52.53;;
49488;SDS011;35382;51.484;11.476;2022-12-01T07:08:23;277.38;;;50.60;;
49488;SDS011;35382;51.484;11.476;2022-12-01T07:10:05;277.15;;;47.88;;
49488;SDS011;35382;51.484;11.476;2022-12-01T07:11:46;241.85;;;49.08;;
49488;SDS011;35382;51.484;11.476;2022-12-01T07:13:27;252.00;;;50.17;;
49488;SDS011;35382;51.484;11.476;2022-12-01T07:15:09;219.00;;;48.13;;
49488;SDS011;35382;51.484;11.476;2022-12-01T07:16:50;268.58;;;48.67;;
49488;SDS011;35382;51.484;11.476;2022-12-01T07:18:31;290.60;;;48.25;;
49488;SDS011;35382;51.484;11.476;2022-12-01T07:20:12;297.75;;;48.55;;
49488;SDS011;35382;51.484;11.476;2022-12-01T07:21:53;318.15;;;51.10;;
49488;SDS011;35382;51.484;11.476;2022-12-01T07:23:34;293.98;;;48.67;;
49488;SDS011;35382;51.484;11.476;2022-12-01T07:25:15;287.63;;;50.13;;
49488;SDS011;35382;51.484;11.476;2022-12-01T07:26:56;314.95;;;47.35;;
49488;SDS011;35382;51.484;11.476;2022-12-01T07:28:37;377.88;;;55.45;;
49488;SDS011;35382;51.484;11.476;2022-12-01T07:30:18;322.52;;;53.15;;
49488;SDS011;35382;51.484;11.476;2022-12-01T07:31:59;209.48;;;49.97;;
49488;SDS011;35382;51.484;11.476;2022-12-01T07:33:40;237.40;;;46.95;;
49488;SDS011;35382;51.484;11.476;2022-12-01T07:35:22;342.55;;;54.60;;
49488;SDS011;35382;51.484;11.476;2022-12-01T07:37:03;350.65;;;56.47;;
49488;SDS011;35382;51.484;11.476;2022-12-01T07:38:43;262.58;;;49.13;;
49488;SDS011;35382;51.484;11.476;2022-12-01T07:40:24;311.15;;;52.65;;
49488;SDS011;35382;51.484;11.476;2022-12-01T07:42:05;194.05;;;44.53;;
49488;SDS011;35382;51.484;11.476;2022-12-01T07:43:47;266.85;;;51.50;;
49488;SDS011;35382;51.484;11.476;2022-12-01T07:45:28;286.77;;;48.35;;
49488;SDS011;35382;51.484;11.476;2022-12-01T07:47:09;319.70;;;53.22;;
49488;SDS011;35382;51.484;11.476;2022-12-01T07:48:50;384.13;;;54.30;;
49488;SDS011;35382;51.484;11.476;2022-12-01T07:50:31;282.75;;;47.63;;
49488;SDS011;35382;51.484;11.476;2022-12-01T07:52:12;267.58;;;49.58;;
49488;SDS011;35382;51.484;11.476;2022-12-01T07:53:53;315.98;;;52.30;;
49488;SDS011;35382;51.484;11.476;2022-12-01T07:55:34;295.50;;;47.95;;
49488;SDS011;35382;51.484;11.476;2022-12-01T07:57:15;273.52;;;49.92;;
49488;SDS011;35382;51.484;11.476;2022-12-01T07:58:57;262.48;;;47.15;;
49488;SDS011;35382;51.484;11.476;2022-12-01T08:00:38;172.35;;;42.53;;
49488;SDS011;35382;51.484;11.476;2022-12-01T08:02:20;214.50;;;43.30;;
49488;SDS011;35382;51.484;11.476;2022-12-01T08:04:01;261.55;;;45.42;;
49488;SDS011;35382;51.484;11.476;2022-12-01T08:05:43;335.77;;;52.53;;
49488;SDS011;35382;51.484;11.476;2022-12-01T08:07:23;220.57;;;43.78;;
49488;SDS011;35382;51.484;11.476;2022-12-01T08:09:04;212.90;;;44.72;;
49488;SDS011;35382;51.484;11.476;2022-12-01T08:10:45;238.13;;;43.92;;
49488;SDS011;35382;51.484;11.476;2022-12-01T08:12:26;247.52;;;46.72;;
49488;SDS011;35382;51.484;11.476;2022-12-01T08:14:07;223.18;;;45.05;;
49488;SDS011;35382;51.484;11.476;2022-12-01T08:15:48;223.82;;;45.13;;
49488;SDS011;35382;51.484;11.476;2022-12-01T08:17:29;152.02;;;39.53;;
49488;SDS011;35382;51.484;11.476;2022-12-01T08:19:10;217.73;;;43.03;;
49488;SDS011;35382;51.484;11.476;2022-12-01T08:20:54;198.52;;;43.65;;
49488;SDS011;35382;51.484;11.476;2022-12-01T08:22:36;210.35;;;43.08;;
49488;SDS011;35382;51.484;11.476;2022-12-01T08:24:17;179.20;;;40.17;;
49488;SDS011;35382;51.484;11.476;2022-12-01T08:25:59;173.10;;;39.78;;
49488;SDS011;35382;51.484;11.476;2022-12-01T08:27:44;150.50;;;39.90;;
49488;SDS011;35382;51.484;11.476;2022-12-01T08:29:25;172.35;;;40.70;;
49488;SDS011;35382;51.484;11.476;2022-12-01T08:31:07;168.98;;;42.28;;
49488;SDS011;35382;51.484;11.476;2022-12-01T08:32:54;170.68;;;40.83;;
49488;SDS011;35382;51.484;11.476;2022-12-01T08:34:36;214.85;;;41.38;;
49488;SDS011;35382;51.484;11.476;2022-12-01T08:36:18;152.75;;;38.65;;
49488;SDS011;35382;51.484;11.476;2022-12-01T08:38:00;178.50;;;41.83;;
49488;SDS011;35382;51.484;11.476;2022-12-01T08:39:41;153.95;;;37.97;;
49488;SDS011;35382;51.484;11.476;2022-12-01T08:41:22;158.93;;;38.80;;
49488;SDS011;35382;51.484;11.476;2022-12-01T08:43:04;192.48;;;39.47;;
49488;SDS011;35382;51.484;11.476;2022-12-01T08:44:45;173.65;;;41.00;;
49488;SDS011;35382;51.484;11.476;2022-12-01T08:46:32;173.10;;;40.60;;
49488;SDS011;35382;51.484;11.476;2022-12-01T08:48:14;159.70;;;40.05;;
49488;SDS011;35382;51.484;11.476;2022-12-01T08:49:55;171.68;;;39.35;;
49488;SDS011;35382;51.484;11.476;2022-12-01T08:51:36;155.52;;;39.00;;
49488;SDS011;35382;51.484;11.476;2022-12-01T08:53:17;157.25;;;38.90;;
49488;SDS011;35382;51.484;11.476;2022-12-01T08:54:58;138.95;;;37.67;;
49488;SDS011;35382;51.484;11.476;2022-12-01T08:56:41;136.75;;;37.20;;
49488;SDS011;35382;51.484;11.476;2022-12-01T08:58:23;130.32;;;37.40;;
49488;SDS011;35382;51.484;11.476;2022-12-01T09:00:04;127.38;;;35.60;;
49488;SDS011;35382;51.484;11.476;2022-12-01T09:01:46;124.32;;;35.33;;
49488;SDS011;35382;51.484;11.476;2022-12-01T09:03:33;131.68;;;35.65;;
49488;SDS011;35382;51.484;11.476;2022-12-01T09:05:15;134.75;;;37.28;;
49488;SDS011;35382;51.484;11.476;2022-12-01T09:06:56;117.75;;;37.17;;
49488;SDS011;35382;51.484;11.476;2022-12-01T09:08:37;114.95;;;35.08;;
49488;SDS011;35382;51.484;11.476;2022-12-01T09:10:18;101.55;;;33.20;;
49488;SDS011;35382;51.484;11.476;2022-12-01T09:11:59;92.45;;;32.72;;
49488;SDS011;35382;51.484;11.476;2022-12-01T09:13:41;108.95;;;34.15;;
49488;SDS011;35382;51.484;11.476;2022-12-01T09:15:23;112.70;;;34.50;;
49488;SDS011;35382;51.484;11.476;2022-12-01T09:17:04;117.93;;;37.42;;
49488;SDS011;35382;51.484;11.476;2022-12-01T09:18:46;122.78;;;35.40;;
49488;SDS011;35382;51.484;11.476;2022-12-01T09:20:27;121.80;;;36.45;;
49488;SDS011;35382;51.484;11.476;2022-12-01T09:22:08;118.60;;;35.08;;
49488;SDS011;35382;51.484;11.476;2022-12-01T09:23:50;112.38;;;35.53;;
49488;SDS011;35382;51.484;11.476;2022-12-01T09:25:32;122.53;;;35.88;;
49488;SDS011;35382;51.484;11.476;2022-12-01T09:27:13;133.32;;;37.13;;
49488;SDS011;35382;51.484;11.476;2022-12-01T09:28:55;118.60;;;36.10;;
49488;SDS011;35382;51.484;11.476;2022-12-01T09:30:37;119.40;;;36.00;;
49488;SDS011;35382;51.484;11.476;2022-12-01T09:32:18;142.52;;;38.38;;
49488;SDS011;35382;51.484;11.476;2022-12-01T09:34:00;134.90;;;37.17;;
49488;SDS011;35382;51.484;11.476;2022-12-01T09:35:42;133.32;;;35.63;;
49488;SDS011;35382;51.484;11.476;2022-12-01T09:37:23;117.10;;;37.65;;
49488;SDS011;35382;51.484;11.476;2022-12-01T09:39:05;131.00;;;37.53;;
49488;SDS011;35382;51.484;11.476;2022-12-01T09:40:46;156.82;;;39.35;;
49488;SDS011;35382;51.484;11.476;2022-12-01T09:42:27;137.82;;;36.88;;
49488;SDS011;35382;51.484;11.476;2022-12-01T09:46:01;103.72;;;35.20;;
49488;SDS011;35382;51.484;11.476;2022-12-01T09:47:47;120.97;;;36.25;;
49488;SDS011;35382;51.484;11.476;2022-12-01T09:49:34;130.88;;;36.17;;
49488;SDS011;35382;51.484;11.476;2022-12-01T09:51:21;121.78;;;37.42;;
49488;SDS011;35382;51.484;11.476;2022-12-01T09:53:05;120.10;;;35.22;;
49488;SDS011;35382;51.484;11.476;2022-12-01T09:54:48;118.28;;;34.00;;
49488;SDS011;35382;51.484;11.476;2022-12-01T09:56:30;116.07;;;34.13;;
49488;SDS011;35382;51.484;11.476;2022-12-01T09:58:19;108.75;;;35.08;;
49488;SDS011;35382;51.484;11.476;2022-12-01T10:00:16;108.18;;;34.30;;
49488;SDS011;35382;51.484;11.476;2022-12-01T10:01:58;119.68;;;35.33;;
49488;SDS011;35382;51.484;11.476;2022-12-01T10:03:43;120.47;;;35.15;;
49488;SDS011;35382;51.484;11.476;2022-12-01T10:05:30;122.43;;;36.70;;
49488;SDS011;35382;51.484;11.476;2022-12-01T10:09:17;98.30;;;32.22;;
49488;SDS011;35382;51.484;11.476;2022-12-01T10:11:26;101.78;;;32.47;;
49488;SDS011;35382;51.484;11.476;2022-12-01T10:13:15;120.68;;;35.83;;
49488;SDS011;35382;51.484;11.476;2022-12-01T10:19:03;104.18;;;33.60;;
49488;SDS011;35382;51.484;11.476;2022-12-01T10:20:52;103.95;;;32.85;;
49488;SDS011;35382;51.484;11.476;2022-12-01T10:24:46;119.95;;;37.50;;
49488;SDS011;35382;51.484;11.476;2022-12-01T10:28:23;110.82;;;34.80;;
49488;SDS011;35382;51.484;11.476;2022-12-01T10:30:23;97.32;;;34.85;;
49488;SDS011;35382;51.484;11.476;2022-12-01T10:32:16;111.70;;;36.22;;
49488;SDS011;35382;51.484;11.476;2022-12-01T10:34:02;119.40;;;37.85;;
49488;SDS011;35382;51.484;11.476;2022-12-01T10:35:55;115.22;;;36.20;;
49488;SDS011;35382;51.484;11.476;2022-12-01T10:37:37;118.78;;;37.70;;
49488;SDS011;35382;51.484;11.476;2022-12-01T10:39:37;133.25;;;39.40;;
49488;SDS011;35382;51.484;11.476;2022-12-01T10:41:21;113.72;;;37.63;;